sensor_id;sensor_type;location;lat;lon;timestamp;temperature;humidity
52034;DHT22;38045;52.988;6.536;2023-03-12T00:00:39;-0.70;99.90
52034;DHT22;38045;52.988;6.536;2023-03-12T00:03:05;-0.70;99.90
52034;DHT22;38045;52.988;6.536;2023-03-12T00:05:30;-0.70;99.90
52034;DHT22;38045;52.988;6.536;2023-03-12T00:07:57;-0.70;99.90
52034;DHT22;38045;52.988;6.536;2023-03-12T00:10:27;-0.70;99.90
52034;DHT22;38045;52.988;6.536;2023-03-12T00:12:53;-0.70;99.90
52034;DHT22;38045;52.988;6.536;2023-03-12T00:15:18;-0.80;99.90
52034;DHT22;38045;52.988;6.536;2023-03-12T00:17:44;-0.80;99.90
52034;DHT22;38045;52.988;6.536;2023-03-12T00:20:10;-0.80;99.90
52034;DHT22;38045;52.988;6.536;2023-03-12T00:22:37;-0.80;99.90
52034;DHT22;38045;52.988;6.536;2023-03-12T00:25:04;-0.80;99.90
52034;DHT22;38045;52.988;6.536;2023-03-12T00:27:30;-0.80;99.90
52034;DHT22;38045;52.988;6.536;2023-03-12T00:29:55;-0.80;99.90
52034;DHT22;38045;52.988;6.536;2023-03-12T00:32:21;-0.90;99.90
52034;DHT22;38045;52.988;6.536;2023-03-12T00:34:51;-0.90;99.90
52034;DHT22;38045;52.988;6.536;2023-03-12T00:37:17;-0.90;99.90
52034;DHT22;38045;52.988;6.536;2023-03-12T00:39:43;-0.90;99.90
52034;DHT22;38045;52.988;6.536;2023-03-12T00:42:08;-0.80;99.90
52034;DHT22;38045;52.988;6.536;2023-03-12T00:44:34;-0.80;99.90
52034;DHT22;38045;52.988;6.536;2023-03-12T00:47:00;-0.70;99.90
52034;DHT22;38045;52.988;6.536;2023-03-12T00:49:25;-0.70;99.90
52034;DHT22;38045;52.988;6.536;2023-03-12T00:51:51;-0.70;99.90
52034;DHT22;38045;52.988;6.536;2023-03-12T00:54:18;-0.80;99.90
52034;DHT22;38045;52.988;6.536;2023-03-12T00:56:44;-0.90;99.90
52034;DHT22;38045;52.988;6.536;2023-03-12T00:59:12;-0.90;99.90
52034;DHT22;38045;52.988;6.536;2023-03-12T01:01:37;-0.90;99.90
52034;DHT22;38045;52.988;6.536;2023-03-12T01:04:03;-0.90;99.90
52034;DHT22;38045;52.988;6.536;2023-03-12T01:06:29;-0.90;99.90
52034;DHT22;38045;52.988;6.536;2023-03-12T01:08:54;-0.90;99.90
52034;DHT22;38045;52.988;6.536;2023-03-12T01:11:21;-1.00;99.90
52034;DHT22;38045;52.988;6.536;2023-03-12T01:13:47;-1.00;99.90
52034;DHT22;38045;52.988;6.536;2023-03-12T01:16:12;-1.00;99.90
52034;DHT22;38045;52.988;6.536;2023-03-12T01:18:38;-1.10;99.90
52034;DHT22;38045;52.988;6.536;2023-03-12T01:21:04;-1.10;99.90
52034;DHT22;38045;52.988;6.536;2023-03-12T01:23:30;-1.10;99.90
52034;DHT22;38045;52.988;6.536;2023-03-12T01:25:55;-1.10;99.90
52034;DHT22;38045;52.988;6.536;2023-03-12T01:28:22;-1.00;99.90
52034;DHT22;38045;52.988;6.536;2023-03-12T01:30:48;-1.00;99.90
52034;DHT22;38045;52.988;6.536;2023-03-12T01:33:14;-1.00;99.90
52034;DHT22;38045;52.988;6.536;2023-03-12T01:35:40;-1.00;99.90
52034;DHT22;38045;52.988;6.536;2023-03-12T01:38:06;-1.00;99.90
52034;DHT22;38045;52.988;6.536;2023-03-12T01:40:34;-0.90;99.90
52034;DHT22;38045;52.988;6.536;2023-03-12T01:43:24;-0.90;99.90
52034;DHT22;38045;52.988;6.536;2023-03-12T01:48:41;-0.90;99.90
52034;DHT22;38045;52.988;6.536;2023-03-12T01:51:12;-0.90;99.90
52034;DHT22;38045;52.988;6.536;2023-03-12T01:53:40;-0.80;99.90
52034;DHT22;38045;52.988;6.536;2023-03-12T01:56:08;-0.80;99.90
52034;DHT22;38045;52.988;6.536;2023-03-12T01:58:36;-0.80;99.90
52034;DHT22;38045;52.988;6.536;2023-03-12T02:01:02;-0.70;99.90
52034;DHT22;38045;52.988;6.536;2023-03-12T02:03:29;-0.70;99.90
52034;DHT22;38045;52.988;6.536;2023-03-12T02:06:05;-0.70;99.90
52034;DHT22;38045;52.988;6.536;2023-03-12T02:08:35;-0.70;99.90
52034;DHT22;38045;52.988;6.536;2023-03-12T02:11:01;-0.60;99.90
52034;DHT22;38045;52.988;6.536;2023-03-12T02:13:27;-0.60;99.90
52034;DHT22;38045;52.988;6.536;2023-03-12T02:15:53;-0.60;99.90
52034;DHT22;38045;52.988;6.536;2023-03-12T02:18:18;-0.60;99.90
52034;DHT22;38045;52.988;6.536;2023-03-12T02:20:51;-0.50;99.90
52034;DHT22;38045;52.988;6.536;2023-03-12T02:26:09;-0.50;99.90
52034;DHT22;38045;52.988;6.536;2023-03-12T02:28:36;-0.50;99.90
52034;DHT22;38045;52.988;6.536;2023-03-12T02:31:10;-0.40;99.90
52034;DHT22;38045;52.988;6.536;2023-03-12T02:33:37;-0.40;99.90
52034;DHT22;38045;52.988;6.536;2023-03-12T02:36:02;-0.40;99.90
52034;DHT22;38045;52.988;6.536;2023-03-12T02:43:40;-0.30;99.90
52034;DHT22;38045;52.988;6.536;2023-03-12T02:46:08;-0.30;99.90
52034;DHT22;38045;52.988;6.536;2023-03-12T02:48:33;-0.30;99.90
52034;DHT22;38045;52.988;6.536;2023-03-12T02:50:59;-0.20;99.90
52034;DHT22;38045;52.988;6.536;2023-03-12T02:53:25;-0.20;99.90
52034;DHT22;38045;52.988;6.536;2023-03-12T02:55:50;-0.20;99.90
52034;DHT22;38045;52.988;6.536;2023-03-12T02:58:16;-0.20;99.90
52034;DHT22;38045;52.988;6.536;2023-03-12T03:00:41;-0.20;99.90
52034;DHT22;38045;52.988;6.536;2023-03-12T03:03:07;-0.10;99.90
52034;DHT22;38045;52.988;6.536;2023-03-12T03:05:33;-0.10;99.90
52034;DHT22;38045;52.988;6.536;2023-03-12T03:08:02;-0.10;99.90
52034;DHT22;38045;52.988;6.536;2023-03-12T03:10:27;-0.10;99.90
52034;DHT22;38045;52.988;6.536;2023-03-12T03:12:53;-0.10;99.90
52034;DHT22;38045;52.988;6.536;2023-03-12T03:15:18;0.00;99.90
52034;DHT22;38045;52.988;6.536;2023-03-12T03:17:44;0.00;99.90
52034;DHT22;38045;52.988;6.536;2023-03-12T03:20:10;0.00;99.90
52034;DHT22;38045;52.988;6.536;2023-03-12T03:22:37;0.00;99.90
52034;DHT22;38045;52.988;6.536;2023-03-12T03:25:04;0.00;99.90
52034;DHT22;38045;52.988;6.536;2023-03-12T03:27:30;0.00;99.90
52034;DHT22;38045;52.988;6.536;2023-03-12T03:29:56;0.10;99.90
52034;DHT22;38045;52.988;6.536;2023-03-12T03:32:22;0.10;99.90
52034;DHT22;38045;52.988;6.536;2023-03-12T03:34:47;0.10;99.90
52034;DHT22;38045;52.988;6.536;2023-03-12T03:37:13;0.10;99.90
52034;DHT22;38045;52.988;6.536;2023-03-12T03:39:38;0.20;99.90
52034;DHT22;38045;52.988;6.536;2023-03-12T03:42:04;0.20;99.90
52034;DHT22;38045;52.988;6.536;2023-03-12T03:44:30;0.20;99.90
52034;DHT22;38045;52.988;6.536;2023-03-12T03:46:55;0.20;99.90
52034;DHT22;38045;52.988;6.536;2023-03-12T03:49:22;0.30;99.90
52034;DHT22;38045;52.988;6.536;2023-03-12T03:51:48;0.30;99.90
52034;DHT22;38045;52.988;6.536;2023-03-12T03:54:14;0.30;99.90
52034;DHT22;38045;52.988;6.536;2023-03-12T03:56:40;0.40;99.90
52034;DHT22;38045;52.988;6.536;2023-03-12T03:59:06;0.50;99.90
52034;DHT22;38045;52.988;6.536;2023-03-12T04:01:32;0.50;99.90
52034;DHT22;38045;52.988;6.536;2023-03-12T04:03:58;0.50;99.90
52034;DHT22;38045;52.988;6.536;2023-03-12T04:06:24;0.50;99.90
52034;DHT22;38045;52.988;6.536;2023-03-12T04:08:50;0.50;99.90
52034;DHT22;38045;52.988;6.536;2023-03-12T04:11:18;0.60;99.90
52034;DHT22;38045;52.988;6.536;2023-03-12T04:13:44;0.60;99.90
52034;DHT22;38045;52.988;6.536;2023-03-12T04:16:10;0.60;99.90
52034;DHT22;38045;52.988;6.536;2023-03-12T04:18:36;0.60;99.90
52034;DHT22;38045;52.988;6.536;2023-03-12T04:21:03;0.60;99.90
52034;DHT22;38045;52.988;6.536;2023-03-12T04:23:29;0.60;99.90
52034;DHT22;38045;52.988;6.536;2023-03-12T04:25:54;0.60;99.90
52034;DHT22;38045;52.988;6.536;2023-03-12T04:28:20;0.60;99.90
52034;DHT22;38045;52.988;6.536;2023-03-12T04:30:57;0.70;99.90
52034;DHT22;38045;52.988;6.536;2023-03-12T04:33:27;0.70;99.90
52034;DHT22;38045;52.988;6.536;2023-03-12T04:35:54;0.70;99.90
52034;DHT22;38045;52.988;6.536;2023-03-12T04:38:24;0.70;99.90
52034;DHT22;38045;52.988;6.536;2023-03-12T04:40:57;0.70;99.90
52034;DHT22;38045;52.988;6.536;2023-03-12T04:43:23;0.70;99.90
52034;DHT22;38045;52.988;6.536;2023-03-12T04:45:49;0.80;99.90
52034;DHT22;38045;52.988;6.536;2023-03-12T04:48:15;0.80;99.90
52034;DHT22;38045;52.988;6.536;2023-03-12T04:50:40;0.80;99.90
52034;DHT22;38045;52.988;6.536;2023-03-12T04:53:06;0.90;99.90
52034;DHT22;38045;52.988;6.536;2023-03-12T04:55:31;0.90;99.90
52034;DHT22;38045;52.988;6.536;2023-03-12T04:57:57;0.90;99.90
52034;DHT22;38045;52.988;6.536;2023-03-12T05:00:22;0.90;99.90
52034;DHT22;38045;52.988;6.536;2023-03-12T05:02:48;0.90;99.90
52034;DHT22;38045;52.988;6.536;2023-03-12T05:05:14;1.00;99.90
52034;DHT22;38045;52.988;6.536;2023-03-12T05:07:39;1.00;99.90
52034;DHT22;38045;52.988;6.536;2023-03-12T05:10:05;1.00;99.90
52034;DHT22;38045;52.988;6.536;2023-03-12T05:12:31;1.00;99.90
52034;DHT22;38045;52.988;6.536;2023-03-12T05:14:57;1.00;99.90
52034;DHT22;38045;52.988;6.536;2023-03-12T05:17:22;1.00;99.90
52034;DHT22;38045;52.988;6.536;2023-03-12T05:19:48;1.00;99.90
52034;DHT22;38045;52.988;6.536;2023-03-12T05:22:14;1.10;99.90
52034;DHT22;38045;52.988;6.536;2023-03-12T05:24:39;1.10;99.90
52034;DHT22;38045;52.988;6.536;2023-03-12T05:27:05;1.10;99.90
52034;DHT22;38045;52.988;6.536;2023-03-12T05:29:33;1.10;99.90
52034;DHT22;38045;52.988;6.536;2023-03-12T05:32:00;1.10;99.90
52034;DHT22;38045;52.988;6.536;2023-03-12T05:34:26;1.10;99.90
52034;DHT22;38045;52.988;6.536;2023-03-12T05:36:55;1.10;99.90
52034;DHT22;38045;52.988;6.536;2023-03-12T05:39:21;1.10;99.90
52034;DHT22;38045;52.988;6.536;2023-03-12T05:41:47;1.10;99.90
52034;DHT22;38045;52.988;6.536;2023-03-12T05:44:13;1.10;99.90
52034;DHT22;38045;52.988;6.536;2023-03-12T05:46:41;1.10;99.90
52034;DHT22;38045;52.988;6.536;2023-03-12T05:49:07;1.10;99.90
52034;DHT22;38045;52.988;6.536;2023-03-12T05:51:32;1.10;99.90
52034;DHT22;38045;52.988;6.536;2023-03-12T05:53:58;1.10;99.90
52034;DHT22;38045;52.988;6.536;2023-03-12T05:56:24;1.10;99.90
52034;DHT22;38045;52.988;6.536;2023-03-12T05:58:49;1.10;99.90
52034;DHT22;38045;52.988;6.536;2023-03-12T06:01:22;1.10;99.90
52034;DHT22;38045;52.988;6.536;2023-03-12T06:03:49;1.10;99.90
52034;DHT22;38045;52.988;6.536;2023-03-12T06:06:15;1.10;99.90
52034;DHT22;38045;52.988;6.536;2023-03-12T06:08:41;1.20;99.90
52034;DHT22;38045;52.988;6.536;2023-03-12T06:11:07;1.20;99.90
52034;DHT22;38045;52.988;6.536;2023-03-12T06:13:33;1.20;99.90
52034;DHT22;38045;52.988;6.536;2023-03-12T06:16:07;1.20;99.90
52034;DHT22;38045;52.988;6.536;2023-03-12T06:18:34;1.20;99.90
52034;DHT22;38045;52.988;6.536;2023-03-12T06:21:18;1.20;99.90
52034;DHT22;38045;52.988;6.536;2023-03-12T06:23:44;1.20;99.90
52034;DHT22;38045;52.988;6.536;2023-03-12T06:26:11;1.20;99.90
52034;DHT22;38045;52.988;6.536;2023-03-12T06:28:37;1.30;99.90
52034;DHT22;38045;52.988;6.536;2023-03-12T06:31:03;1.30;99.90
52034;DHT22;38045;52.988;6.536;2023-03-12T06:33:29;1.30;99.90
52034;DHT22;38045;52.988;6.536;2023-03-12T06:36:00;1.20;99.90
52034;DHT22;38045;52.988;6.536;2023-03-12T06:38:27;1.30;99.90
52034;DHT22;38045;52.988;6.536;2023-03-12T06:40:54;1.30;99.90
52034;DHT22;38045;52.988;6.536;2023-03-12T06:43:20;1.30;99.90
52034;DHT22;38045;52.988;6.536;2023-03-12T06:45:46;1.30;99.90
52034;DHT22;38045;52.988;6.536;2023-03-12T06:48:11;1.30;99.90
52034;DHT22;38045;52.988;6.536;2023-03-12T06:50:37;1.30;99.90
52034;DHT22;38045;52.988;6.536;2023-03-12T06:53:03;1.30;99.90
52034;DHT22;38045;52.988;6.536;2023-03-12T06:55:28;1.30;99.90
52034;DHT22;38045;52.988;6.536;2023-03-12T06:57:54;1.40;99.90
52034;DHT22;38045;52.988;6.536;2023-03-12T07:00:20;1.40;99.90
52034;DHT22;38045;52.988;6.536;2023-03-12T07:02:45;1.50;99.90
52034;DHT22;38045;52.988;6.536;2023-03-12T07:05:11;1.50;99.90
52034;DHT22;38045;52.988;6.536;2023-03-12T07:07:36;1.50;99.90
52034;DHT22;38045;52.988;6.536;2023-03-12T07:10:03;1.50;99.90
52034;DHT22;38045;52.988;6.536;2023-03-12T07:12:31;1.60;99.90
52034;DHT22;38045;52.988;6.536;2023-03-12T07:14:57;1.50;99.90
52034;DHT22;38045;52.988;6.536;2023-03-12T07:17:23;1.50;99.90
52034;DHT22;38045;52.988;6.536;2023-03-12T07:19:50;1.40;99.90
52034;DHT22;38045;52.988;6.536;2023-03-12T07:22:16;1.40;99.90
52034;DHT22;38045;52.988;6.536;2023-03-12T07:24:42;1.40;99.90
52034;DHT22;38045;52.988;6.536;2023-03-12T07:27:07;1.30;99.90
52034;DHT22;38045;52.988;6.536;2023-03-12T07:29:33;1.30;99.90
52034;DHT22;38045;52.988;6.536;2023-03-12T07:31:59;1.30;99.90
52034;DHT22;38045;52.988;6.536;2023-03-12T07:34:24;1.30;99.90
52034;DHT22;38045;52.988;6.536;2023-03-12T07:36:50;1.20;99.90
52034;DHT22;38045;52.988;6.536;2023-03-12T07:39:16;1.20;99.90
52034;DHT22;38045;52.988;6.536;2023-03-12T07:41:41;1.20;99.90
52034;DHT22;38045;52.988;6.536;2023-03-12T07:44:07;1.20;99.90
52034;DHT22;38045;52.988;6.536;2023-03-12T07:46:33;1.20;99.90
52034;DHT22;38045;52.988;6.536;2023-03-12T07:48:59;1.10;99.90
52034;DHT22;38045;52.988;6.536;2023-03-12T07:51:25;1.10;99.90
52034;DHT22;38045;52.988;6.536;2023-03-12T07:53:51;1.10;99.90
52034;DHT22;38045;52.988;6.536;2023-03-12T07:56:16;1.10;99.90
52034;DHT22;38045;52.988;6.536;2023-03-12T07:58:42;1.20;99.90
52034;DHT22;38045;52.988;6.536;2023-03-12T08:01:07;1.20;99.90
52034;DHT22;38045;52.988;6.536;2023-03-12T08:03:33;1.20;99.90
52034;DHT22;38045;52.988;6.536;2023-03-12T08:06:01;1.20;99.90
52034;DHT22;38045;52.988;6.536;2023-03-12T08:08:27;1.20;99.90
52034;DHT22;38045;52.988;6.536;2023-03-12T08:10:53;1.10;99.90
52034;DHT22;38045;52.988;6.536;2023-03-12T08:13:19;1.10;99.90
52034;DHT22;38045;52.988;6.536;2023-03-12T08:15:45;1.20;99.90
52034;DHT22;38045;52.988;6.536;2023-03-12T08:18:10;1.20;99.90
52034;DHT22;38045;52.988;6.536;2023-03-12T08:20:36;1.20;99.90
52034;DHT22;38045;52.988;6.536;2023-03-12T08:23:02;1.20;99.90
52034;DHT22;38045;52.988;6.536;2023-03-12T08:25:27;1.20;99.90
52034;DHT22;38045;52.988;6.536;2023-03-12T08:27:53;1.20;99.90
52034;DHT22;38045;52.988;6.536;2023-03-12T08:30:19;1.20;99.90
52034;DHT22;38045;52.988;6.536;2023-03-12T08:32:45;1.20;99.90
52034;DHT22;38045;52.988;6.536;2023-03-12T08:35:11;1.20;99.90
52034;DHT22;38045;52.988;6.536;2023-03-12T08:37:36;1.10;99.90
52034;DHT22;38045;52.988;6.536;2023-03-12T08:40:02;1.10;99.90
52034;DHT22;38045;52.988;6.536;2023-03-12T08:42:38;1.10;99.90
52034;DHT22;38045;52.988;6.536;2023-03-12T08:45:04;1.20;99.90
52034;DHT22;38045;52.988;6.536;2023-03-12T08:47:29;1.20;99.90
52034;DHT22;38045;52.988;6.536;2023-03-12T08:49:55;1.20;99.90
52034;DHT22;38045;52.988;6.536;2023-03-12T08:52:20;1.30;99.90
52034;DHT22;38045;52.988;6.536;2023-03-12T08:54:46;1.40;99.90
52034;DHT22;38045;52.988;6.536;2023-03-12T08:57:12;1.50;99.90
52034;DHT22;38045;52.988;6.536;2023-03-12T08:59:37;1.50;99.90
52034;DHT22;38045;52.988;6.536;2023-03-12T09:02:03;1.50;99.90
52034;DHT22;38045;52.988;6.536;2023-03-12T09:04:29;1.50;99.90
52034;DHT22;38045;52.988;6.536;2023-03-12T09:06:55;1.40;99.90
52034;DHT22;38045;52.988;6.536;2023-03-12T09:09:21;1.50;99.90
52034;DHT22;38045;52.988;6.536;2023-03-12T09:11:46;1.40;99.90
52034;DHT22;38045;52.988;6.536;2023-03-12T09:14:12;1.40;99.90
52034;DHT22;38045;52.988;6.536;2023-03-12T09:16:37;1.40;99.90
52034;DHT22;38045;52.988;6.536;2023-03-12T09:19:03;1.40;99.90
52034;DHT22;38045;52.988;6.536;2023-03-12T09:21:29;1.40;99.90
52034;DHT22;38045;52.988;6.536;2023-03-12T09:23:55;1.50;99.90
52034;DHT22;38045;52.988;6.536;2023-03-12T09:26:20;1.50;99.90
52034;DHT22;38045;52.988;6.536;2023-03-12T09:28:46;1.60;99.90
52034;DHT22;38045;52.988;6.536;2023-03-12T09:31:12;1.70;99.90
52034;DHT22;38045;52.988;6.536;2023-03-12T09:33:37;1.70;99.90
52034;DHT22;38045;52.988;6.536;2023-03-12T09:36:03;1.70;99.90
52034;DHT22;38045;52.988;6.536;2023-03-12T09:38:29;1.70;99.90
52034;DHT22;38045;52.988;6.536;2023-03-12T09:40:57;1.80;99.90
52034;DHT22;38045;52.988;6.536;2023-03-12T09:43:39;1.70;99.90
52034;DHT22;38045;52.988;6.536;2023-03-12T09:46:12;1.80;99.90
52034;DHT22;38045;52.988;6.536;2023-03-12T09:48:39;1.80;99.90
52034;DHT22;38045;52.988;6.536;2023-03-12T09:54:58;1.80;99.90
52034;DHT22;38045;52.988;6.536;2023-03-12T09:57:04;1.80;99.90
52034;DHT22;38045;52.988;6.536;2023-03-12T09:59:33;1.90;99.90
52034;DHT22;38045;52.988;6.536;2023-03-12T10:02:05;1.90;99.90
52034;DHT22;38045;52.988;6.536;2023-03-12T10:04:57;1.90;99.90
52034;DHT22;38045;52.988;6.536;2023-03-12T10:07:36;1.90;99.90
52034;DHT22;38045;52.988;6.536;2023-03-12T10:23:41;2.00;99.90
52034;DHT22;38045;52.988;6.536;2023-03-12T10:26:11;2.00;99.90
52034;DHT22;38045;52.988;6.536;2023-03-12T10:29:17;2.00;99.90
52034;DHT22;38045;52.988;6.536;2023-03-12T10:31:40;2.10;99.90
52034;DHT22;38045;52.988;6.536;2023-03-12T10:34:39;2.10;99.90
52034;DHT22;38045;52.988;6.536;2023-03-12T10:39:42;2.10;99.90
52034;DHT22;38045;52.988;6.536;2023-03-12T10:42:20;2.10;99.90
52034;DHT22;38045;52.988;6.536;2023-03-12T10:44:50;2.10;99.90
52034;DHT22;38045;52.988;6.536;2023-03-12T10:50:12;2.20;99.90
52034;DHT22;38045;52.988;6.536;2023-03-12T10:52:38;2.30;99.90
52034;DHT22;38045;52.988;6.536;2023-03-12T10:57:48;2.30;99.90
52034;DHT22;38045;52.988;6.536;2023-03-12T11:00:22;2.40;99.90
52034;DHT22;38045;52.988;6.536;2023-03-12T11:05:35;2.50;99.90
52034;DHT22;38045;52.988;6.536;2023-03-12T11:08:02;2.60;99.90
52034;DHT22;38045;52.988;6.536;2023-03-12T11:10:42;2.60;99.90
52034;DHT22;38045;52.988;6.536;2023-03-12T11:13:21;2.70;99.90
52034;DHT22;38045;52.988;6.536;2023-03-12T11:15:47;2.70;99.90
52034;DHT22;38045;52.988;6.536;2023-03-12T11:23:36;3.00;99.90
52034;DHT22;38045;52.988;6.536;2023-03-12T11:26:11;3.00;99.90
52034;DHT22;38045;52.988;6.536;2023-03-12T11:28:42;3.10;99.90
52034;DHT22;38045;52.988;6.536;2023-03-12T11:31:18;3.20;99.90
52034;DHT22;38045;52.988;6.536;2023-03-12T11:33:45;3.20;99.90
52034;DHT22;38045;52.988;6.536;2023-03-12T11:41:20;3.40;99.90
52034;DHT22;38045;52.988;6.536;2023-03-12T11:43:56;3.50;99.90
52034;DHT22;38045;52.988;6.536;2023-03-12T11:55:20;3.80;99.90
52034;DHT22;38045;52.988;6.536;2023-03-12T11:58:11;3.90;99.90
52034;DHT22;38045;52.988;6.536;2023-03-12T12:09:39;4.40;99.90
52034;DHT22;38045;52.988;6.536;2023-03-12T12:14:23;4.60;99.90
52034;DHT22;38045;52.988;6.536;2023-03-12T12:19:51;4.80;99.90
52034;DHT22;38045;52.988;6.536;2023-03-12T12:22:31;4.90;99.90
52034;DHT22;38045;52.988;6.536;2023-03-12T12:28:18;5.10;99.90
52034;DHT22;38045;52.988;6.536;2023-03-12T12:39:48;5.40;99.90
52034;DHT22;38045;52.988;6.536;2023-03-12T12:42:20;5.50;99.90
52034;DHT22;38045;52.988;6.536;2023-03-12T12:44:50;5.50;99.90
52034;DHT22;38045;52.988;6.536;2023-03-12T12:47:45;5.60;99.90
52034;DHT22;38045;52.988;6.536;2023-03-12T12:50:21;5.70;99.90
52034;DHT22;38045;52.988;6.536;2023-03-12T12:52:56;5.80;99.90
52034;DHT22;38045;52.988;6.536;2023-03-12T12:55:33;5.90;99.90
52034;DHT22;38045;52.988;6.536;2023-03-12T12:58:29;6.00;99.90
52034;DHT22;38045;52.988;6.536;2023-03-12T13:00:58;5.70;99.90
52034;DHT22;38045;52.988;6.536;2023-03-12T13:03:26;6.20;99.90
52034;DHT22;38045;52.988;6.536;2023-03-12T13:11:30;6.40;99.90
52034;DHT22;38045;52.988;6.536;2023-03-12T13:16:34;6.70;99.90
52034;DHT22;38045;52.988;6.536;2023-03-12T13:24:30;6.90;99.90
52034;DHT22;38045;52.988;6.536;2023-03-12T13:27:18;6.90;99.90
52034;DHT22;38045;52.988;6.536;2023-03-12T13:29:45;6.90;99.90
52034;DHT22;38045;52.988;6.536;2023-03-12T13:33:02;6.90;99.90
52034;DHT22;38045;52.988;6.536;2023-03-12T13:43:08;7.10;99.90
52034;DHT22;38045;52.988;6.536;2023-03-12T13:45:59;7.10;99.90
52034;DHT22;38045;52.988;6.536;2023-03-12T13:48:25;7.20;99.90
52034;DHT22;38045;52.988;6.536;2023-03-12T13:50:57;7.20;99.90
52034;DHT22;38045;52.988;6.536;2023-03-12T13:53:32;7.40;99.90
52034;DHT22;38045;52.988;6.536;2023-03-12T13:56:11;7.50;99.90
52034;DHT22;38045;52.988;6.536;2023-03-12T13:58:47;7.60;99.90
52034;DHT22;38045;52.988;6.536;2023-03-12T14:01:16;7.80;99.90
52034;DHT22;38045;52.988;6.536;2023-03-12T14:03:47;7.90;99.90
52034;DHT22;38045;52.988;6.536;2023-03-12T14:06:18;7.90;99.90
52034;DHT22;38045;52.988;6.536;2023-03-12T14:09:27;7.90;99.90
52034;DHT22;38045;52.988;6.536;2023-03-12T14:16:46;8.20;99.90
52034;DHT22;38045;52.988;6.536;2023-03-12T14:19:25;8.20;99.90
52034;DHT22;38045;52.988;6.536;2023-03-12T14:21:52;8.20;99.90
52034;DHT22;38045;52.988;6.536;2023-03-12T14:24:30;8.20;99.90
52034;DHT22;38045;52.988;6.536;2023-03-12T14:26:58;8.10;99.90
52034;DHT22;38045;52.988;6.536;2023-03-12T14:29:29;8.10;99.90
52034;DHT22;38045;52.988;6.536;2023-03-12T14:31:58;8.10;99.90
52034;DHT22;38045;52.988;6.536;2023-03-12T14:34:29;8.10;99.90
52034;DHT22;38045;52.988;6.536;2023-03-12T14:37:17;8.10;99.90
52034;DHT22;38045;52.988;6.536;2023-03-12T14:39:57;8.10;99.90
52034;DHT22;38045;52.988;6.536;2023-03-12T14:42:32;8.10;99.90
52034;DHT22;38045;52.988;6.536;2023-03-12T14:44:59;8.10;99.90
52034;DHT22;38045;52.988;6.536;2023-03-12T14:47:26;8.20;99.90
52034;DHT22;38045;52.988;6.536;2023-03-12T14:49:55;8.20;99.90
52034;DHT22;38045;52.988;6.536;2023-03-12T14:52:26;8.20;99.90
52034;DHT22;38045;52.988;6.536;2023-03-12T14:54:56;8.20;99.90
52034;DHT22;38045;52.988;6.536;2023-03-12T14:57:22;8.20;99.90
52034;DHT22;38045;52.988;6.536;2023-03-12T15:00:13;8.20;99.90
52034;DHT22;38045;52.988;6.536;2023-03-12T15:02:41;8.30;99.90
52034;DHT22;38045;52.988;6.536;2023-03-12T15:05:17;8.30;99.90
52034;DHT22;38045;52.988;6.536;2023-03-12T15:07:45;8.30;99.90
52034;DHT22;38045;52.988;6.536;2023-03-12T15:10:23;8.30;99.90
52034;DHT22;38045;52.988;6.536;2023-03-12T15:12:52;8.30;99.90
52034;DHT22;38045;52.988;6.536;2023-03-12T15:15:39;8.30;99.90
52034;DHT22;38045;52.988;6.536;2023-03-12T15:18:16;8.40;99.90
52034;DHT22;38045;52.988;6.536;2023-03-12T15:20:42;8.40;99.90
52034;DHT22;38045;52.988;6.536;2023-03-12T15:23:11;8.40;99.90
52034;DHT22;38045;52.988;6.536;2023-03-12T15:25:37;8.40;99.90
52034;DHT22;38045;52.988;6.536;2023-03-12T15:28:26;8.40;99.90
52034;DHT22;38045;52.988;6.536;2023-03-12T15:31:11;8.40;99.90
52034;DHT22;38045;52.988;6.536;2023-03-12T15:33:39;8.40;99.90
52034;DHT22;38045;52.988;6.536;2023-03-12T15:41:51;8.40;99.90
52034;DHT22;38045;52.988;6.536;2023-03-12T15:44:20;8.40;99.90
52034;DHT22;38045;52.988;6.536;2023-03-12T15:46:52;8.40;99.90
52034;DHT22;38045;52.988;6.536;2023-03-12T15:49:22;8.40;99.90
52034;DHT22;38045;52.988;6.536;2023-03-12T15:57:35;8.40;99.90
52034;DHT22;38045;52.988;6.536;2023-03-12T16:02:38;8.70;99.90
52034;DHT22;38045;52.988;6.536;2023-03-12T16:05:05;8.40;99.90
52034;DHT22;38045;52.988;6.536;2023-03-12T16:07:31;8.50;99.90
52034;DHT22;38045;52.988;6.536;2023-03-12T16:09:56;8.50;99.90
52034;DHT22;38045;52.988;6.536;2023-03-12T16:12:22;8.50;99.90
52034;DHT22;38045;52.988;6.536;2023-03-12T16:14:48;8.50;99.90
52034;DHT22;38045;52.988;6.536;2023-03-12T16:17:14;8.50;99.90
52034;DHT22;38045;52.988;6.536;2023-03-12T16:19:43;8.50;99.90
52034;DHT22;38045;52.988;6.536;2023-03-12T16:22:09;8.40;99.90
52034;DHT22;38045;52.988;6.536;2023-03-12T16:24:34;8.40;99.90
52034;DHT22;38045;52.988;6.536;2023-03-12T16:27:01;8.40;99.90
52034;DHT22;38045;52.988;6.536;2023-03-12T16:29:34;8.40;99.90
52034;DHT22;38045;52.988;6.536;2023-03-12T16:32:01;8.40;99.90
52034;DHT22;38045;52.988;6.536;2023-03-12T16:34:27;8.40;99.90
52034;DHT22;38045;52.988;6.536;2023-03-12T16:36:53;8.40;99.90
52034;DHT22;38045;52.988;6.536;2023-03-12T16:39:19;8.30;99.90
52034;DHT22;38045;52.988;6.536;2023-03-12T16:41:45;8.40;99.90
52034;DHT22;38045;52.988;6.536;2023-03-12T16:44:16;8.40;99.90
52034;DHT22;38045;52.988;6.536;2023-03-12T16:46:44;8.40;99.90
52034;DHT22;38045;52.988;6.536;2023-03-12T16:49:15;8.40;99.90
52034;DHT22;38045;52.988;6.536;2023-03-12T16:51:41;8.40;99.90
52034;DHT22;38045;52.988;6.536;2023-03-12T16:54:06;8.40;99.90
52034;DHT22;38045;52.988;6.536;2023-03-12T16:56:34;8.40;99.90
52034;DHT22;38045;52.988;6.536;2023-03-12T16:59:04;8.30;99.90
52034;DHT22;38045;52.988;6.536;2023-03-12T17:01:30;8.30;99.90
52034;DHT22;38045;52.988;6.536;2023-03-12T17:03:56;8.30;99.90
52034;DHT22;38045;52.988;6.536;2023-03-12T17:06:23;8.30;99.90
52034;DHT22;38045;52.988;6.536;2023-03-12T17:08:50;8.30;99.90
52034;DHT22;38045;52.988;6.536;2023-03-12T17:11:19;8.30;99.90
52034;DHT22;38045;52.988;6.536;2023-03-12T17:13:47;8.30;99.90
52034;DHT22;38045;52.988;6.536;2023-03-12T17:16:14;8.30;99.90
52034;DHT22;38045;52.988;6.536;2023-03-12T17:18:40;8.30;99.90
52034;DHT22;38045;52.988;6.536;2023-03-12T17:21:10;8.30;99.90
52034;DHT22;38045;52.988;6.536;2023-03-12T17:23:36;8.30;99.90
52034;DHT22;38045;52.988;6.536;2023-03-12T17:26:02;8.20;99.90
52034;DHT22;38045;52.988;6.536;2023-03-12T17:28:27;8.20;99.90
52034;DHT22;38045;52.988;6.536;2023-03-12T17:30:53;8.20;99.90
52034;DHT22;38045;52.988;6.536;2023-03-12T17:33:19;8.20;99.90
52034;DHT22;38045;52.988;6.536;2023-03-12T17:35:45;8.20;99.90
52034;DHT22;38045;52.988;6.536;2023-03-12T17:38:11;8.20;99.90
52034;DHT22;38045;52.988;6.536;2023-03-12T17:40:43;8.20;99.90
52034;DHT22;38045;52.988;6.536;2023-03-12T17:43:09;8.20;99.90
52034;DHT22;38045;52.988;6.536;2023-03-12T17:45:35;8.20;99.90
52034;DHT22;38045;52.988;6.536;2023-03-12T17:48:01;8.20;99.90
52034;DHT22;38045;52.988;6.536;2023-03-12T17:50:27;8.20;99.90
52034;DHT22;38045;52.988;6.536;2023-03-12T17:52:52;8.10;99.90
52034;DHT22;38045;52.988;6.536;2023-03-12T17:55:18;8.10;99.90